createdAt,value
2023-04-23T00:01:25.846Z,9.13
2023-04-23T00:03:58.528Z,8.13
2023-04-23T00:06:30.450Z,9.23
2023-04-23T00:09:00.145Z,9.55
2023-04-23T00:11:27.758Z,10.43
2023-04-23T00:13:55.148Z,10.63
2023-04-23T00:16:22.604Z,10.82
2023-04-23T00:18:49.758Z,10.43
2023-04-23T00:21:16.822Z,9.75
2023-04-23T00:23:44.057Z,9.48
2023-04-23T00:26:11.063Z,9.50
2023-04-23T00:28:38.135Z,8.63
2023-04-23T00:31:05.774Z,9.63
2023-04-23T00:33:32.800Z,8.48
2023-04-23T00:35:59.890Z,8.25
2023-04-23T00:38:27.018Z,9.02
2023-04-23T00:40:54.258Z,8.70
2023-04-23T00:43:21.514Z,9.23
2023-04-23T00:45:49.562Z,8.77
2023-04-23T00:48:17.114Z,8.75
2023-04-23T00:50:44.234Z,8.40
2023-04-23T00:53:11.255Z,9.95
2023-04-23T00:55:38.931Z,9.13
2023-04-23T00:58:06.918Z,8.60
2023-04-23T01:00:38.472Z,9.57
2023-04-23T01:03:05.675Z,11.07
2023-04-23T01:05:32.992Z,10.23
2023-04-23T01:08:00.116Z,9.52
2023-04-23T01:10:29.284Z,11.32
2023-04-23T01:12:56.445Z,9.23
2023-04-23T01:15:23.651Z,12.07
2023-04-23T01:17:51.221Z,10.43
2023-04-23T01:20:18.300Z,12.05
2023-04-23T01:22:46.098Z,12.70
2023-04-23T01:25:13.417Z,11.93
2023-04-23T01:27:41.138Z,11.13
2023-04-23T01:30:09.040Z,11.43
2023-04-23T01:32:36.616Z,9.95
2023-04-23T01:35:04.939Z,10.25
2023-04-23T01:37:33.030Z,11.25
2023-04-23T01:40:00.175Z,11.25
2023-04-23T01:42:27.248Z,10.07
2023-04-23T01:44:54.958Z,11.55
2023-04-23T01:47:22.171Z,10.80
2023-04-23T01:49:49.460Z,14.15
2023-04-23T01:52:16.606Z,14.00
2023-04-23T01:54:43.779Z,13.00
2023-04-23T01:57:11.192Z,11.98
2023-04-23T01:59:38.876Z,11.82
2023-04-23T02:02:06.120Z,12.02
2023-04-23T02:04:34.254Z,11.60
2023-04-23T02:07:01.680Z,11.32
2023-04-23T02:09:28.724Z,9.77
2023-04-23T02:11:57.834Z,12.73
2023-04-23T02:14:24.911Z,11.43
2023-04-23T02:16:51.890Z,9.95
2023-04-23T02:19:18.886Z,10.40
2023-04-23T02:21:46.057Z,11.27
2023-04-23T02:24:13.043Z,11.15
2023-04-23T02:26:40.014Z,11.27
2023-04-23T02:29:07.180Z,10.35
2023-04-23T02:31:34.355Z,9.50
2023-04-23T02:34:01.531Z,10.38
2023-04-23T02:36:31.322Z,11.00
2023-04-23T02:38:58.354Z,10.45
2023-04-23T02:41:25.328Z,10.93
2023-04-23T02:43:52.410Z,10.80
2023-04-23T02:46:19.446Z,10.75
2023-04-23T02:48:46.620Z,10.55
2023-04-23T02:51:14.789Z,11.48
2023-04-23T02:53:41.846Z,11.27
2023-04-23T02:56:08.919Z,9.30
2023-04-23T02:58:36.352Z,9.73
2023-04-23T03:01:04.391Z,10.23
2023-04-23T03:03:32.510Z,9.30
2023-04-23T03:06:01.649Z,9.50
2023-04-23T03:08:28.806Z,8.80
2023-04-23T03:10:55.965Z,9.05
2023-04-23T03:13:23.084Z,8.73
2023-04-23T03:15:51.477Z,9.13
2023-04-23T03:18:18.901Z,8.68
2023-04-23T03:20:45.999Z,9.13
2023-04-23T03:23:14.027Z,9.43
2023-04-23T03:25:41.180Z,9.05
2023-04-23T03:28:08.252Z,10.00
2023-04-23T03:30:35.662Z,11.85
2023-04-23T03:33:03.160Z,12.05
2023-04-23T03:35:30.700Z,11.57
2023-04-23T03:37:57.993Z,10.07
2023-04-23T03:40:25.499Z,9.57
2023-04-23T03:42:52.758Z,8.50
2023-04-23T03:45:19.893Z,8.80
2023-04-23T03:47:46.976Z,9.43
2023-04-23T03:50:14.047Z,9.38
2023-04-23T03:52:41.233Z,9.68
2023-04-23T03:55:09.119Z,9.35
2023-04-23T03:57:39.318Z,9.20
2023-04-23T04:00:08.468Z,9.00
2023-04-23T04:02:36.001Z,9.07
2023-04-23T04:05:22.248Z,9.05
2023-04-23T04:07:49.312Z,8.68
2023-04-23T04:10:16.376Z,9.00
2023-04-23T04:12:45.086Z,9.05
2023-04-23T04:15:12.311Z,8.25
2023-04-23T04:17:39.466Z,8.88
2023-04-23T04:20:08.505Z,8.63
2023-04-23T04:22:35.565Z,9.48
2023-04-23T04:25:02.897Z,9.52
2023-04-23T04:27:33.504Z,10.88
2023-04-23T04:30:05.714Z,10.73
2023-04-23T04:32:33.386Z,14.80
2023-04-23T04:35:00.537Z,10.38
2023-04-23T04:37:28.253Z,10.55
2023-04-23T04:39:55.308Z,9.13
2023-04-23T04:42:22.426Z,8.18
2023-04-23T04:44:49.556Z,8.48
2023-04-23T04:47:17.015Z,10.25
2023-04-23T04:49:44.018Z,8.55
2023-04-23T04:52:11.361Z,9.75
2023-04-23T04:54:38.372Z,9.10
2023-04-23T04:57:06.528Z,8.38
2023-04-23T04:59:33.540Z,7.75
2023-04-23T05:02:00.908Z,8.45
2023-04-23T05:04:27.974Z,8.15
2023-04-23T05:06:54.989Z,6.57
2023-04-23T05:09:22.162Z,6.97
2023-04-23T05:11:49.281Z,7.50
2023-04-23T05:14:16.479Z,7.13
2023-04-23T05:16:43.673Z,6.80
2023-04-23T05:19:10.690Z,6.38
2023-04-23T05:21:37.767Z,7.15
2023-04-23T05:24:05.131Z,7.22
2023-04-23T05:26:32.200Z,5.03
2023-04-23T05:28:59.235Z,3.53
2023-04-23T05:31:28.132Z,3.40
2023-04-23T05:33:56.380Z,2.53
2023-04-23T05:36:23.418Z,2.17
2023-04-23T05:38:50.547Z,2.42
2023-04-23T05:41:17.597Z,2.25
2023-04-23T05:43:44.705Z,2.30
2023-04-23T05:46:11.782Z,2.17
2023-04-23T05:48:38.828Z,2.22
2023-04-23T05:51:05.938Z,2.42
2023-04-23T05:53:33.172Z,2.42
2023-04-23T05:56:00.215Z,2.03
2023-04-23T05:58:27.186Z,2.88
2023-04-23T06:00:54.364Z,2.50
2023-04-23T06:03:21.614Z,2.30
2023-04-23T06:05:48.920Z,2.50
2023-04-23T06:08:16.132Z,2.20
2023-04-23T06:10:43.529Z,2.55
2023-04-23T06:13:11.220Z,2.25
2023-04-23T06:15:38.770Z,2.63
2023-04-23T06:18:06.300Z,2.45
2023-04-23T06:20:33.415Z,2.28
2023-04-23T06:23:00.881Z,2.40
2023-04-23T06:25:27.918Z,2.40
2023-04-23T06:27:54.977Z,2.17
2023-04-23T06:30:22.200Z,2.63
2023-04-23T06:32:49.856Z,2.40
2023-04-23T06:35:17.032Z,2.05
2023-04-23T06:37:44.058Z,2.33
2023-04-23T06:40:11.412Z,2.30
2023-04-23T06:42:38.549Z,2.40
2023-04-23T06:45:06.564Z,2.53
2023-04-23T06:47:33.785Z,2.70
2023-04-23T06:50:00.960Z,2.88
2023-04-23T06:52:28.159Z,2.95
2023-04-23T06:54:55.186Z,2.67
2023-04-23T06:57:22.246Z,2.38
2023-04-23T06:59:49.272Z,2.47
2023-04-23T07:02:16.395Z,2.70
2023-04-23T07:04:43.825Z,3.20
2023-04-23T07:07:12.158Z,2.70
2023-04-23T07:09:39.453Z,2.25
2023-04-23T07:12:06.661Z,2.85
2023-04-23T07:14:33.705Z,2.85
2023-04-23T07:17:00.798Z,2.80
2023-04-23T07:19:27.814Z,2.40
2023-04-23T07:21:54.823Z,2.83
2023-04-23T07:24:22.056Z,3.33
2023-04-23T07:26:49.286Z,2.97
2023-04-23T07:29:16.356Z,3.47
2023-04-23T07:31:43.743Z,3.05
2023-04-23T07:34:11.148Z,3.33
2023-04-23T07:36:38.454Z,3.17
2023-04-23T07:39:05.895Z,3.40
2023-04-23T07:41:33.542Z,3.17
2023-04-23T07:44:01.067Z,4.30
2023-04-23T07:46:28.277Z,4.55
2023-04-23T07:48:55.736Z,3.90
2023-04-23T07:51:26.662Z,4.43
2023-04-23T07:53:54.631Z,3.63
2023-04-23T07:56:22.564Z,3.03
2023-04-23T07:58:49.645Z,3.28
2023-04-23T08:01:17.650Z,2.97
2023-04-23T08:03:45.017Z,3.20
2023-04-23T08:06:12.532Z,2.50
2023-04-23T08:08:39.814Z,3.00
2023-04-23T08:11:07.708Z,3.30
2023-04-23T08:13:34.724Z,2.95
2023-04-23T08:16:20.650Z,3.83
2023-04-23T08:19:01.735Z,3.10
2023-04-23T08:21:32.928Z,1.92
2023-04-23T08:24:00.307Z,1.90
2023-04-23T08:26:27.412Z,2.17
2023-04-23T08:28:54.488Z,1.50
2023-04-23T08:31:26.250Z,1.75
2023-04-23T08:33:54.542Z,1.98
2023-04-23T08:36:21.643Z,2.03
2023-04-23T08:38:48.679Z,2.33
2023-04-23T08:41:18.461Z,2.35
2023-04-23T08:43:53.336Z,2.65
2023-04-23T08:46:21.633Z,3.03
2023-04-23T08:48:51.471Z,2.50
2023-04-23T08:51:20.739Z,2.10
2023-04-23T08:53:52.642Z,2.20
2023-04-23T08:56:21.766Z,1.83
2023-04-23T08:58:50.896Z,1.60
2023-04-23T09:01:19.056Z,1.90
2023-04-23T09:03:48.317Z,2.00
2023-04-23T09:06:15.492Z,1.95
2023-04-23T09:09:01.580Z,2.05
2023-04-23T09:11:30.128Z,2.05
2023-04-23T09:13:57.483Z,2.05
2023-04-23T09:16:24.722Z,2.13
2023-04-23T09:18:52.563Z,2.50
2023-04-23T09:21:20.531Z,2.20
2023-04-23T09:23:55.165Z,2.15
2023-04-23T09:26:22.698Z,2.03
2023-04-23T09:28:53.824Z,2.42
2023-04-23T09:31:22.965Z,1.63
2023-04-23T09:33:54.482Z,1.83
2023-04-23T09:36:26.406Z,2.20
2023-04-23T09:39:15.844Z,2.53
2023-04-23T09:41:43.159Z,2.28
2023-04-23T09:44:10.293Z,2.20
2023-04-23T09:46:44.750Z,2.40
2023-04-23T09:49:13.433Z,2.38
2023-04-23T09:51:42.441Z,2.10
2023-04-23T09:54:16.708Z,1.80
2023-04-23T09:56:44.465Z,2.28
2023-04-23T09:59:29.013Z,2.20
2023-04-23T10:02:04.770Z,1.98
2023-04-23T10:04:32.342Z,1.80
2023-04-23T10:07:17.261Z,2.17
2023-04-23T10:09:47.156Z,2.20
2023-04-23T10:14:46.934Z,2.30
2023-04-23T10:17:14.506Z,1.70
2023-04-23T10:19:43.724Z,2.00
2023-04-23T10:24:48.585Z,2.40
2023-04-23T10:27:30.808Z,2.05
2023-04-23T10:30:24.757Z,1.90
2023-04-23T10:32:52.214Z,2.10
2023-04-23T10:35:19.452Z,2.03
2023-04-23T10:37:48.772Z,2.20
2023-04-23T10:40:23.912Z,2.03
2023-04-23T10:42:51.689Z,2.10
2023-04-23T10:45:25.379Z,2.05
2023-04-23T10:47:56.498Z,1.98
2023-04-23T10:50:24.999Z,2.15
2023-04-23T10:52:57.295Z,1.90
2023-04-23T10:58:21.006Z,2.67
2023-04-23T11:00:48.640Z,1.90
2023-04-23T11:03:43.101Z,2.08
2023-04-23T11:06:15.913Z,1.83
2023-04-23T11:08:56.925Z,1.90
2023-04-23T11:11:41.480Z,2.40
2023-04-23T11:14:14.496Z,2.05
2023-04-23T11:16:41.647Z,2.05
2023-04-23T11:19:12.543Z,2.10
2023-04-23T11:22:17.222Z,2.08
2023-04-23T11:24:46.436Z,2.10
2023-04-23T11:27:18.839Z,1.80
2023-04-23T11:29:47.948Z,1.88
2023-04-23T11:32:17.509Z,1.60
2023-04-23T11:34:46.410Z,1.98
2023-04-23T11:37:15.526Z,1.88
2023-04-23T11:39:44.540Z,1.80
2023-04-23T11:42:15.887Z,1.90
2023-04-23T11:44:44.214Z,1.80
2023-04-23T11:47:13.507Z,1.60
2023-04-23T11:49:42.972Z,2.28
2023-04-23T11:52:11.493Z,1.98
2023-04-23T11:54:41.916Z,2.08
2023-04-23T11:57:27.555Z,2.00
2023-04-23T11:59:54.543Z,2.00
2023-04-23T12:02:25.138Z,1.85
2023-04-23T12:04:53.541Z,1.70
2023-04-23T12:07:31.414Z,1.90
2023-04-23T12:10:01.648Z,1.90
2023-04-23T12:12:34.720Z,1.80
2023-04-23T12:15:06.800Z,1.98
2023-04-23T12:17:33.998Z,1.83
2023-04-23T12:20:05.023Z,2.22
2023-04-23T12:22:32.079Z,1.63
2023-04-23T12:25:00.368Z,2.05
2023-04-23T12:27:28.469Z,2.47
2023-04-23T12:30:02.464Z,1.73
2023-04-23T12:32:34.534Z,2.08
2023-04-23T12:35:01.776Z,2.45
2023-04-23T12:37:31.526Z,1.80
2023-04-23T12:40:17.257Z,1.77
2023-04-23T12:42:44.368Z,1.85
2023-04-23T12:45:12.153Z,1.80
2023-04-23T12:47:57.844Z,2.05
2023-04-23T12:50:24.855Z,2.08
2023-04-23T12:52:52.110Z,1.85
2023-04-23T12:55:19.596Z,2.00
2023-04-23T12:57:46.593Z,1.92
2023-04-23T13:00:14.098Z,2.20
2023-04-23T13:02:41.377Z,2.05
2023-04-23T13:05:08.802Z,1.80
2023-04-23T13:07:36.005Z,1.80
2023-04-23T13:10:03.200Z,1.90
2023-04-23T13:12:30.681Z,1.63
2023-04-23T13:14:58.199Z,1.80
2023-04-23T13:17:26.531Z,2.33
2023-04-23T13:19:54.924Z,2.50
2023-04-23T13:22:22.776Z,2.10
2023-04-23T13:24:49.849Z,2.10
2023-04-23T13:27:16.856Z,2.33
2023-04-23T13:29:44.137Z,2.45
2023-04-23T13:32:11.436Z,2.70
2023-04-23T13:34:38.624Z,2.60
2023-04-23T13:37:09.372Z,2.65
2023-04-23T13:39:41.787Z,2.50
2023-04-23T13:42:10.197Z,2.55
2023-04-23T13:44:37.904Z,2.13
2023-04-23T13:47:05.122Z,2.30
2023-04-23T13:49:32.432Z,2.08
2023-04-23T13:52:17.846Z,2.25
2023-04-23T13:55:04.249Z,2.10
2023-04-23T13:57:32.335Z,2.70
2023-04-23T14:00:00.770Z,2.55
2023-04-23T14:02:28.069Z,2.50
2023-04-23T14:04:55.408Z,2.75
2023-04-23T14:07:22.504Z,2.78
2023-04-23T14:09:52.858Z,2.60
2023-04-23T14:12:21.095Z,2.38
2023-04-23T14:14:48.743Z,2.70
2023-04-23T14:17:16.318Z,2.58
2023-04-23T14:19:43.552Z,3.13
2023-04-23T14:22:30.427Z,6.00
2023-04-23T14:25:31.130Z,3.38
2023-04-23T14:28:03.797Z,2.72
2023-04-23T14:30:31.652Z,2.90
2023-04-23T14:32:58.779Z,2.75
2023-04-23T14:35:41.618Z,2.83
2023-04-23T14:38:09.995Z,2.55
2023-04-23T14:40:37.067Z,3.20
2023-04-23T14:43:15.083Z,3.10
2023-04-23T14:45:42.835Z,2.80
2023-04-23T14:48:09.923Z,2.92
2023-04-23T14:50:37.089Z,2.85
2023-04-23T14:53:10.056Z,2.80
2023-04-23T14:58:04.139Z,2.80
2023-04-23T15:00:31.230Z,2.53
2023-04-23T15:02:58.619Z,2.42
2023-04-23T15:05:25.888Z,2.40
2023-04-23T15:07:53.423Z,3.00
2023-04-23T15:10:23.168Z,3.15
2023-04-23T15:13:20.012Z,2.85
2023-04-23T15:15:51.601Z,2.47
2023-04-23T15:18:19.590Z,2.75
2023-04-23T15:20:46.805Z,2.67
2023-04-23T15:23:13.889Z,4.15
2023-04-23T15:25:41.256Z,3.22
2023-04-23T15:28:08.575Z,4.20
2023-04-23T15:30:35.605Z,2.97
2023-04-23T15:33:02.671Z,2.50
2023-04-23T15:35:30.116Z,4.85
2023-04-23T15:37:57.330Z,2.65
2023-04-23T15:40:24.474Z,2.22
2023-04-23T15:42:51.470Z,2.08
2023-04-23T15:45:18.975Z,2.17
2023-04-23T15:47:46.274Z,2.40
2023-04-23T15:50:13.663Z,2.50
2023-04-23T15:52:41.899Z,2.20
2023-04-23T15:55:09.542Z,2.33
2023-04-23T15:57:36.573Z,2.17
2023-04-23T16:00:04.114Z,2.38
2023-04-23T16:02:34.627Z,2.30
2023-04-23T16:05:01.991Z,2.60
2023-04-23T16:07:30.494Z,2.10
2023-04-23T16:09:57.602Z,2.50
2023-04-23T16:12:24.679Z,2.28
2023-04-23T16:14:51.788Z,2.70
2023-04-23T16:17:18.975Z,2.45
2023-04-23T16:19:46.635Z,2.80
2023-04-23T16:22:15.518Z,2.90
2023-04-23T16:24:42.672Z,3.40
2023-04-23T16:27:11.034Z,2.75
2023-04-23T16:29:38.673Z,2.30
2023-04-23T16:32:07.187Z,2.55
2023-04-23T16:34:34.580Z,2.63
2023-04-23T16:37:01.796Z,2.78
2023-04-23T16:39:28.913Z,3.72
2023-04-23T16:41:56.095Z,2.80
2023-04-23T16:44:23.124Z,3.08
2023-04-23T16:46:50.873Z,3.08
2023-04-23T16:49:18.009Z,2.60
2023-04-23T16:51:45.080Z,2.63
2023-04-23T16:54:12.397Z,2.60
2023-04-23T16:56:39.806Z,3.00
2023-04-23T16:59:06.877Z,3.40
2023-04-23T17:01:33.976Z,3.25
2023-04-23T17:04:01.216Z,3.50
2023-04-23T17:06:30.358Z,4.10
2023-04-23T17:08:59.399Z,3.65
2023-04-23T17:11:27.949Z,4.03
2023-04-23T17:13:56.099Z,3.63
2023-04-23T17:16:26.678Z,3.63
2023-04-23T17:18:54.875Z,3.53
2023-04-23T17:21:22.484Z,4.38
2023-04-23T17:23:49.867Z,3.75
2023-04-23T17:26:16.972Z,4.10
2023-04-23T17:28:44.005Z,3.70
2023-04-23T17:31:11.456Z,4.60
2023-04-23T17:33:38.903Z,4.40
2023-04-23T17:36:06.297Z,4.25
2023-04-23T17:38:34.463Z,4.05
2023-04-23T17:41:01.519Z,3.90
2023-04-23T17:43:28.639Z,5.30
2023-04-23T17:45:55.821Z,4.47
2023-04-23T17:48:23.554Z,4.40
2023-04-23T17:50:50.879Z,4.60
2023-04-23T17:53:18.545Z,4.68
2023-04-23T17:55:45.544Z,3.80
2023-04-23T17:58:12.537Z,4.80
2023-04-23T18:00:43.303Z,4.13
2023-04-23T18:03:13.440Z,4.32
2023-04-23T18:05:41.854Z,5.05
2023-04-23T18:08:08.935Z,4.57
2023-04-23T18:10:36.071Z,4.10
2023-04-23T18:13:03.513Z,4.82
2023-04-23T18:15:33.732Z,4.28
2023-04-23T18:18:00.964Z,4.20
2023-04-23T18:20:28.152Z,4.63
2023-04-23T18:22:56.244Z,4.65
2023-04-23T18:25:25.382Z,4.93
2023-04-23T18:27:52.571Z,4.95
2023-04-23T18:30:23.553Z,4.75
2023-04-23T18:32:59.676Z,5.35
2023-04-23T18:35:27.002Z,5.18
2023-04-23T18:38:02.492Z,4.50
2023-04-23T18:40:29.628Z,5.10
2023-04-23T18:42:56.889Z,5.63
2023-04-23T18:45:24.221Z,6.03
2023-04-23T18:48:12.907Z,5.63
2023-04-23T18:50:48.540Z,6.15
2023-04-23T18:53:15.717Z,5.35
2023-04-23T18:55:42.808Z,6.20
2023-04-23T18:58:09.868Z,5.85
2023-04-23T19:00:36.957Z,6.03
2023-04-23T19:03:09.132Z,7.43
2023-04-23T19:05:39.717Z,7.43
2023-04-23T19:08:06.801Z,6.35
2023-04-23T19:10:33.894Z,6.38
2023-04-23T19:13:01.006Z,7.03
2023-04-23T19:15:28.153Z,6.95
2023-04-23T19:17:55.278Z,6.53
2023-04-23T19:20:22.596Z,6.30
2023-04-23T19:22:49.675Z,6.07
2023-04-23T19:25:16.675Z,6.28
2023-04-23T19:27:43.697Z,6.22
2023-04-23T19:30:11.547Z,6.53
2023-04-23T19:32:38.640Z,6.55
2023-04-23T19:35:06.050Z,7.50
2023-04-23T19:37:33.139Z,6.70
2023-04-23T19:40:00.277Z,6.90
2023-04-23T19:42:30.096Z,6.90
2023-04-23T19:44:57.147Z,8.07
2023-04-23T19:47:24.703Z,7.13
2023-04-23T19:49:51.752Z,6.90
2023-04-23T19:52:23.060Z,7.75
2023-04-23T19:54:50.258Z,8.70
2023-04-23T19:57:22.334Z,7.70
2023-04-23T19:59:49.550Z,9.55
2023-04-23T20:02:17.060Z,8.05
2023-04-23T20:04:45.764Z,8.48
2023-04-23T20:07:13.112Z,9.50
2023-04-23T20:09:42.049Z,8.75
2023-04-23T20:12:09.390Z,9.80
2023-04-23T20:14:37.022Z,8.88
2023-04-23T20:17:04.346Z,10.13
2023-04-23T20:19:31.494Z,10.23
2023-04-23T20:21:58.553Z,10.48
2023-04-23T20:24:25.821Z,10.15
2023-04-23T20:26:52.912Z,10.50
2023-04-23T20:29:19.960Z,11.15
2023-04-23T20:31:49.489Z,11.25
2023-04-23T20:34:17.358Z,11.18
2023-04-23T20:36:47.346Z,10.52
2023-04-23T20:39:15.182Z,11.25
2023-04-23T20:41:42.406Z,10.45
2023-04-23T20:44:12.164Z,11.55
2023-04-23T20:46:39.308Z,10.68
2023-04-23T20:49:07.495Z,12.02
2023-04-23T20:51:34.647Z,11.88
2023-04-23T20:54:02.440Z,11.23
2023-04-23T20:56:29.932Z,10.73
2023-04-23T20:59:00.138Z,10.88
2023-04-23T21:01:27.446Z,11.55
2023-04-23T21:03:54.895Z,12.90
2023-04-23T21:06:22.739Z,10.73
2023-04-23T21:08:49.829Z,10.07
2023-04-23T21:11:19.323Z,9.95
2023-04-23T21:13:46.908Z,11.80
2023-04-23T21:16:14.457Z,10.77
2023-04-23T21:18:41.850Z,11.00
2023-04-23T21:21:08.874Z,10.65
2023-04-23T21:23:36.305Z,10.48
2023-04-23T21:26:03.648Z,10.60
2023-04-23T21:28:32.531Z,11.25
2023-04-23T21:31:12.442Z,11.38
2023-04-23T21:33:39.592Z,10.00
2023-04-23T21:36:06.890Z,11.20
2023-04-23T21:38:33.933Z,10.88
2023-04-23T21:41:02.347Z,11.40
2023-04-23T21:43:30.009Z,12.60
2023-04-23T21:45:57.096Z,13.18
2023-04-23T21:48:24.077Z,12.65
2023-04-23T21:50:51.853Z,12.43
2023-04-23T21:53:18.973Z,9.10
2023-04-23T21:55:46.077Z,11.88
2023-04-23T21:58:17.748Z,11.45
2023-04-23T22:00:46.012Z,9.38
2023-04-23T22:03:17.010Z,8.80
2023-04-23T22:08:25.043Z,8.77
2023-04-23T22:10:52.183Z,9.00
2023-04-23T22:13:20.974Z,11.27
2023-04-23T22:15:51.390Z,11.60
2023-04-23T22:18:18.447Z,11.95
2023-04-23T22:20:48.474Z,12.32
2023-04-23T22:23:15.816Z,7.47
2023-04-23T22:25:43.131Z,9.57
2023-04-23T22:28:10.144Z,8.43
2023-04-23T22:30:37.257Z,11.38
2023-04-23T22:33:05.466Z,10.68
2023-04-23T22:35:32.778Z,8.27
2023-04-23T22:38:00.142Z,7.93
2023-04-23T22:40:27.194Z,12.52
2023-04-23T22:42:54.198Z,12.18
2023-04-23T22:45:21.412Z,11.00
2023-04-23T22:47:48.548Z,10.70
2023-04-23T22:50:15.587Z,9.68
2023-04-23T22:52:43.782Z,8.07
2023-04-23T22:55:11.907Z,12.18
2023-04-23T22:57:38.917Z,13.10
2023-04-23T23:00:11.462Z,11.30
2023-04-23T23:02:38.634Z,8.85
2023-04-23T23:05:06.622Z,8.02
2023-04-23T23:07:34.005Z,10.68
2023-04-23T23:10:01.085Z,10.23
2023-04-23T23:12:28.157Z,11.20
2023-04-23T23:14:55.415Z,11.52
2023-04-23T23:17:22.466Z,10.98
2023-04-23T23:19:49.546Z,11.35
2023-04-23T23:22:16.913Z,10.13
2023-04-23T23:24:44.129Z,11.25
2023-04-23T23:27:11.121Z,10.68
2023-04-23T23:29:38.168Z,10.63
2023-04-23T23:32:05.324Z,10.23
2023-04-23T23:34:32.479Z,9.82
2023-04-23T23:36:59.481Z,10.63
2023-04-23T23:39:27.512Z,10.30
2023-04-23T23:41:54.526Z,12.30
2023-04-23T23:44:21.745Z,10.30
2023-04-23T23:46:49.069Z,10.90
2023-04-23T23:49:16.201Z,10.60
2023-04-23T23:51:43.290Z,10.35
2023-04-23T23:54:10.313Z,10.30
2023-04-23T23:56:37.390Z,8.82
2023-04-23T23:59:04.490Z,8.95
